Time;durP1;ratioP1;P1;durP2;ratioP2;P2;SDS_P1;SDS_P2;PMS_P1;PMS_P2;Temp;Humidity;BMP_temperature;BMP_pressure;BME280_temperature;BME280_humidity;BME280_pressure;Samples;Min_cycle;Max_cycle;Signal;HPM_P1;HPM_P2
2023/06/17 00:00:28;;;;;;;14.25;4.00;;;16.10;1.00;;;;;;4925628;28;47246;-77
2023/06/17 00:02:54;;;;;;;27.58;4.93;;;16.10;99.90;;;;;;4929299;28;36847;-76
2023/06/17 00:05:21;;;;;;;24.80;5.10;;;16.10;1.00;;;;;;4909761;28;36231;-77
2023/06/17 00:07:47;;;;;;;14.82;5.65;;;16.00;1.00;;;;;;4920927;28;37726;-77
2023/06/17 00:10:13;;;;;;;12.93;5.22;;;15.90;99.90;;;;;;4917051;28;39349;-77
2023/06/17 00:12:40;;;;;;;10.45;4.68;;;15.90;1.00;;;;;;4911221;28;37363;-77
2023/06/17 00:15:07;;;;;;;6.47;4.18;;;15.80;1.00;;;;;;4921632;28;38473;-77
2023/06/17 00:17:33;;;;;;;7.03;3.80;;;15.70;1.00;;;;;;4926352;28;38498;-77
2023/06/17 00:20:07;;;;;;;6.63;4.10;;;15.70;1.00;;;;;;4921144;28;38618;-77
2023/06/17 00:22:35;;;;;;;7.07;4.28;;;15.70;1.00;;;;;;4925573;28;49130;-77
2023/06/17 00:25:02;;;;;;;8.35;4.35;;;15.70;99.90;;;;;;4922302;28;36146;-77
2023/06/17 00:27:28;;;;;;;4.78;4.00;;;15.60;1.00;;;;;;4908086;29;37979;-76
2023/06/17 00:29:59;;;;;;;5.93;3.60;;;15.60;1.00;;;;;;4921063;28;37463;-77
2023/06/17 00:32:29;;;;;;;5.68;3.95;;;15.60;1.00;;;;;;4927864;28;38195;-77
2023/06/17 00:34:55;;;;;;;5.80;3.47;;;15.60;1.00;;;;;;4905775;28;37362;-78
2023/06/17 00:37:22;;;;;;;4.35;3.80;;;15.60;1.00;;;;;;4905156;29;38476;-77
2023/06/17 00:39:48;;;;;;;7.95;3.97;;;15.60;1.00;;;;;;4909794;29;38484;-78
2023/06/17 00:42:14;;;;;;;5.00;3.92;;;15.50;1.00;;;;;;4926136;28;36768;-77
2023/06/17 00:44:41;;;;;;;12.43;4.13;;;15.40;1.00;;;;;;4926225;28;37395;-77
2023/06/17 00:47:09;;;;;;;13.23;5.32;;;15.30;1.00;;;;;;4928211;28;38936;-78
2023/06/17 00:49:36;;;;;;;12.50;4.35;;;15.30;1.00;;;;;;4924651;28;37546;-77
2023/06/17 00:52:10;;;;;;;15.43;5.07;;;15.30;1.00;;;;;;4930970;28;37995;-78
2023/06/17 00:54:38;;;;;;;14.70;4.10;;;15.20;1.00;;;;;;4924044;28;36057;-78
2023/06/17 00:57:09;;;;;;;9.55;4.15;;;15.20;1.00;;;;;;4921946;29;38632;-78
2023/06/17 00:59:39;;;;;;;10.93;4.47;;;15.20;1.00;;;;;;4904635;29;37902;-78
2023/06/17 01:02:09;;;;;;;10.43;4.50;;;15.10;1.00;;;;;;5301678;23;38319;-78
2023/06/17 01:04:37;;;;;;;13.20;4.53;;;15.10;1.00;;;;;;4884903;29;33248;-76
2023/06/17 01:07:09;;;;;;;11.45;4.65;;;15.10;1.00;;;;;;4904019;28;38987;-76
2023/06/17 01:09:42;;;;;;;17.80;4.70;;;15.10;1.00;;;;;;4902227;28;38662;-77
2023/06/17 01:12:11;;;;;;;17.27;5.28;;;15.00;1.00;;;;;;4915756;28;38383;-77
2023/06/17 01:14:40;;;;;;;14.02;4.82;;;15.00;1.00;;;;;;4904540;28;37089;-77
2023/06/17 01:17:12;;;;;;;15.18;4.90;;;15.00;1.00;;;;;;4918494;29;37690;-79
2023/06/17 01:19:39;;;;;;;16.50;5.30;;;15.00;1.00;;;;;;4899505;29;38350;-79
2023/06/17 01:22:13;;;;;;;21.63;5.03;;;14.90;1.00;;;;;;4901591;29;36934;-78
2023/06/17 01:24:40;;;;;;;13.45;5.47;;;14.90;1.00;;;;;;4904300;29;36589;-77
2023/06/17 01:27:06;;;;;;;12.70;4.63;;;14.90;1.00;;;;;;4901701;29;37703;-77
2023/06/17 01:29:32;;;;;;;15.48;4.70;;;14.90;1.00;;;;;;4903161;29;38457;-79
2023/06/17 01:32:00;;;;;;;11.18;4.43;;;14.90;1.00;;;;;;4906636;29;38691;-78
2023/06/17 01:34:45;;;;;;;7.57;4.25;;;14.90;1.00;;;;;;4902439;29;36988;-78
2023/06/17 01:37:14;;;;;;;10.23;4.47;;;14.80;1.00;;;;;;4902269;29;37636;-78
2023/06/17 01:39:44;;;;;;;5.15;4.28;;;14.70;1.00;;;;;;4901991;29;39518;-78
2023/06/17 01:42:18;;;;;;;6.63;4.35;;;14.70;1.00;;;;;;4900643;29;37356;-76
2023/06/17 01:44:46;;;;;;;8.30;4.47;;;14.60;1.00;;;;;;4923509;28;37448;-78
2023/06/17 01:47:13;;;;;;;7.32;4.47;;;14.60;1.00;;;;;;4904784;29;38161;-78
2023/06/17 01:49:39;;;;;;;5.75;4.30;;;14.60;1.00;;;;;;4906074;29;37194;-80
2023/06/17 01:52:09;;;;;;;5.57;4.68;;;14.50;1.00;;;;;;4899821;28;38473;-78
2023/06/17 01:54:35;;;;;;;6.28;4.65;;;14.50;1.00;;;;;;4915258;28;36158;-78
2023/06/17 01:57:01;;;;;;;5.43;4.50;;;14.50;1.00;;;;;;4903312;28;38693;-79
2023/06/17 01:59:30;;;;;;;5.35;4.32;;;14.40;1.00;;;;;;4907575;29;37644;-78
2023/06/17 02:01:56;;;;;;;6.25;4.72;;;14.40;2.00;;;;;;4905968;29;38471;-79
2023/06/17 02:04:23;;;;;;;8.27;4.35;;;14.40;2.80;;;;;;4940861;28;36706;-78
2023/06/17 02:06:49;;;;;;;5.32;4.47;;;14.30;3.30;;;;;;4921168;28;37725;-78
2023/06/17 02:09:15;;;;;;;6.38;4.82;;;14.30;6.00;;;;;;4926171;28;37709;-79
2023/06/17 02:11:41;;;;;;;5.60;4.03;;;14.30;10.00;;;;;;4925163;28;38265;-79
2023/06/17 02:14:07;;;;;;;5.80;4.63;;;14.30;12.90;;;;;;4926325;28;37439;-78
2023/06/17 02:16:33;;;;;;;8.15;4.70;;;14.30;15.20;;;;;;4951094;28;38515;-78
2023/06/17 02:19:02;;;;;;;5.38;4.75;;;14.30;21.70;;;;;;4927922;28;37615;-78
2023/06/17 02:21:28;;;;;;;6.03;4.68;;;14.30;26.30;;;;;;4944719;28;47279;-78
2023/06/17 02:23:54;;;;;;;5.57;4.80;;;14.20;37.10;;;;;;4950099;28;37443;-78
2023/06/17 02:26:21;;;;;;;6.18;5.10;;;14.10;38.70;;;;;;4943268;28;38529;-78
2023/06/17 02:28:47;;;;;;;7.18;5.07;;;14.10;33.00;;;;;;4946717;28;38169;-78
2023/06/17 02:31:13;;;;;;;7.80;5.15;;;14.00;25.50;;;;;;4951090;28;38730;-78
2023/06/17 02:33:39;;;;;;;5.60;4.90;;;14.00;24.20;;;;;;4953439;28;38311;-78
2023/06/17 02:36:06;;;;;;;6.03;5.15;;;14.00;40.00;;;;;;4934569;28;37848;-80
2023/06/17 02:38:32;;;;;;;5.35;4.85;;;14.00;27.90;;;;;;4931288;28;39186;-80
2023/06/17 02:40:59;;;;;;;5.50;5.00;;;14.00;38.70;;;;;;4930537;28;36907;-79
2023/06/17 02:43:25;;;;;;;7.63;5.40;;;13.90;44.10;;;;;;4936579;28;37470;-79
2023/06/17 02:45:51;;;;;;;5.80;5.28;;;13.90;49.10;;;;;;4940056;28;37622;-78
2023/06/17 02:48:17;;;;;;;7.55;5.00;;;13.90;53.40;;;;;;4953276;28;37045;-78
2023/06/17 02:50:43;;;;;;;5.60;5.10;;;13.90;45.00;;;;;;4933458;28;37378;-80
2023/06/17 02:53:10;;;;;;;7.53;4.90;;;13.80;52.30;;;;;;4951458;28;37452;-80
2023/06/17 02:55:37;;;;;;;5.75;5.10;;;13.80;55.60;;;;;;4953626;28;38649;-80
2023/06/17 02:58:03;;;;;;;5.93;5.03;;;13.80;56.30;;;;;;4933509;28;40343;-80
2023/06/17 03:00:29;;;;;;;7.25;5.00;;;13.70;52.70;;;;;;4930443;28;36738;-80
2023/06/17 03:02:56;;;;;;;5.90;5.28;;;13.60;51.00;;;;;;4951557;28;37517;-80
2023/06/17 03:05:23;;;;;;;6.32;5.28;;;13.60;47.00;;;;;;4935955;28;37720;-80
2023/06/17 03:07:49;;;;;;;6.53;5.15;;;13.60;39.00;;;;;;4953207;28;38903;-80
2023/06/17 03:10:17;;;;;;;6.82;4.95;;;13.60;37.00;;;;;;4954796;28;35703;-80
2023/06/17 03:12:43;;;;;;;6.07;5.13;;;13.60;48.10;;;;;;4943248;28;36188;-80
2023/06/17 03:15:13;;;;;;;7.15;6.35;;;13.60;53.10;;;;;;4959213;28;39315;-80
2023/06/17 03:17:40;;;;;;;7.45;5.30;;;13.60;52.80;;;;;;4941473;28;37964;-79
2023/06/17 03:20:08;;;;;;;6.18;5.22;;;13.60;50.60;;;;;;4945303;28;36974;-80
2023/06/17 03:22:34;;;;;;;6.30;5.45;;;13.60;45.90;;;;;;4950260;28;47358;-79
2023/06/17 03:25:01;;;;;;;6.95;5.18;;;13.60;54.00;;;;;;4949411;28;37890;-79
2023/06/17 03:27:27;;;;;;;7.35;5.25;;;13.60;59.60;;;;;;4959118;28;37274;-80
2023/06/17 03:29:54;;;;;;;5.82;5.18;;;13.60;59.50;;;;;;4963173;28;37733;-79
2023/06/17 03:32:20;;;;;;;7.80;5.38;;;13.60;55.30;;;;;;4944379;28;36831;-80
2023/06/17 03:34:47;;;;;;;6.38;5.45;;;13.60;53.60;;;;;;4959072;28;38613;-79
2023/06/17 03:37:13;;;;;;;6.20;5.50;;;13.60;53.00;;;;;;4944635;28;37035;-80
2023/06/17 03:39:39;;;;;;;8.18;5.00;;;13.60;63.50;;;;;;4961591;28;38435;-80
2023/06/17 03:42:06;;;;;;;6.10;5.40;;;13.60;64.60;;;;;;4955092;28;35834;-80
2023/06/17 03:44:32;;;;;;;6.85;5.57;;;13.60;59.30;;;;;;4954385;28;37591;-80
2023/06/17 03:46:59;;;;;;;9.77;5.32;;;13.70;56.00;;;;;;4943828;28;37006;-80
2023/06/17 03:49:26;;;;;;;10.70;5.63;;;13.70;52.20;;;;;;4960727;28;36718;-80
2023/06/17 03:51:52;;;;;;;7.00;5.47;;;13.70;51.60;;;;;;4942026;28;36165;-80
2023/06/17 03:54:18;;;;;;;7.20;5.47;;;13.70;53.10;;;;;;4940439;28;37260;-80
2023/06/17 03:56:46;;;;;;;6.43;5.63;;;13.70;54.40;;;;;;4948351;28;37698;-80
2023/06/17 03:59:14;;;;;;;5.45;4.95;;;13.80;51.50;;;;;;4963440;28;37832;-79
2023/06/17 04:01:41;;;;;;;8.23;5.55;;;13.80;48.10;;;;;;4941640;28;37257;-79
2023/06/17 04:04:07;;;;;;;5.80;5.20;;;13.80;62.80;;;;;;4941946;28;39537;-79
2023/06/17 04:06:35;;;;;;;6.28;5.50;;;13.90;68.10;;;;;;4938721;28;37672;-79
2023/06/17 04:09:02;;;;;;;8.80;5.93;;;13.90;69.70;;;;;;4943089;28;37439;-81
2023/06/17 04:11:30;;;;;;;7.47;5.88;;;13.90;70.80;;;;;;4945022;28;37564;-80
2023/06/17 04:13:57;;;;;;;7.35;5.55;;;14.00;71.30;;;;;;4943579;28;38219;-80
2023/06/17 04:16:23;;;;;;;6.95;6.25;;;14.10;66.30;;;;;;4946013;28;37446;-79
2023/06/17 04:18:49;;;;;;;6.85;5.88;;;14.10;64.60;;;;;;4933260;28;37271;-80
2023/06/17 04:21:16;;;;;;;7.20;6.22;;;14.20;68.80;;;;;;4937694;28;36020;-80
2023/06/17 04:23:44;;;;;;;6.85;5.88;;;14.30;76.10;;;;;;4937701;28;37981;-80
2023/06/17 04:26:13;;;;;;;9.10;6.55;;;14.30;81.30;;;;;;4950771;28;38703;-80
2023/06/17 04:28:39;;;;;;;9.60;6.72;;;14.40;82.60;;;;;;4932294;28;36996;-81
2023/06/17 04:31:05;;;;;;;11.60;6.30;;;14.50;80.10;;;;;;4930407;28;36844;-79
2023/06/17 04:33:31;;;;;;;8.30;6.72;;;14.50;82.80;;;;;;4928539;28;38417;-80
2023/06/17 04:35:57;;;;;;;9.68;6.88;;;14.60;79.60;;;;;;4933633;28;39157;-80
2023/06/17 04:38:24;;;;;;;11.45;6.80;;;14.70;72.40;;;;;;4929608;28;38437;-79
2023/06/17 04:40:53;;;;;;;11.40;8.13;;;14.80;68.30;;;;;;4931357;28;36392;-80
2023/06/17 04:43:22;;;;;;;10.82;8.32;;;14.90;62.80;;;;;;4927681;28;37594;-79
2023/06/17 04:45:49;;;;;;;10.88;7.57;;;14.90;54.00;;;;;;4930197;28;39206;-79
2023/06/17 04:48:15;;;;;;;10.68;7.82;;;15.10;45.60;;;;;;4928309;28;38192;-80
2023/06/17 04:50:42;;;;;;;8.05;7.28;;;15.20;40.20;;;;;;4922336;28;36309;-79
2023/06/17 04:53:10;;;;;;;9.30;8.13;;;15.30;39.60;;;;;;4932620;28;39668;-78
2023/06/17 04:55:36;;;;;;;11.38;8.88;;;15.40;42.20;;;;;;4927532;28;38132;-78
2023/06/17 04:58:03;;;;;;;9.85;8.57;;;15.50;38.10;;;;;;4909289;28;37950;-78
2023/06/17 05:00:30;;;;;;;10.02;8.45;;;15.70;26.40;;;;;;4926655;28;37135;-80
2023/06/17 05:02:59;;;;;;;10.23;8.48;;;16.00;18.70;;;;;;4901772;29;37845;-80
2023/06/17 05:05:28;;;;;;;11.65;8.68;;;16.40;7.10;;;;;;4907777;28;39324;-81
2023/06/17 05:07:54;;;;;;;11.63;8.77;;;16.80;1.00;;;;;;4905038;28;38387;-81
2023/06/17 05:10:20;;;;;;;12.15;8.50;;;17.10;1.00;;;;;;4906519;29;36828;-81
2023/06/17 05:12:46;;;;;;;13.23;8.25;;;17.40;1.00;;;;;;4917469;29;38820;-81
2023/06/17 05:15:13;;;;;;;12.80;7.90;;;17.50;1.00;;;;;;4901692;29;37703;-81
2023/06/17 05:17:39;;;;;;;7.90;7.10;;;17.80;1.00;;;;;;4897747;29;38909;-81
2023/06/17 05:20:06;;;;;;;10.55;6.90;;;18.00;1.00;;;;;;4904081;29;36006;-80
2023/06/17 05:22:32;;;;;;;8.30;6.88;;;18.20;1.00;;;;;;4909252;29;39857;-80
2023/06/17 05:24:58;;;;;;;9.60;7.40;;;18.40;1.00;;;;;;4901884;29;37342;-80
2023/06/17 05:27:24;;;;;;;11.77;7.32;;;18.50;1.00;;;;;;4909776;29;37982;-81
2023/06/17 05:29:51;;;;;;;10.90;6.88;;;18.60;1.00;;;;;;4922640;29;38175;-81
2023/06/17 05:32:17;;;;;;;10.48;6.75;;;18.70;99.90;;;;;;4903387;29;38954;-80
2023/06/17 05:34:43;;;;;;;12.00;6.90;;;18.80;99.90;;;;;;4907543;29;38596;-80
2023/06/17 05:37:09;;;;;;;8.65;7.00;;;19.00;99.90;;;;;;4907807;28;38129;-80
2023/06/17 05:39:35;;;;;;;13.30;6.78;;;19.10;1.00;;;;;;4905997;29;35910;-80
2023/06/17 05:42:01;;;;;;;11.90;7.00;;;19.00;1.00;;;;;;4905684;29;37930;-80
2023/06/17 05:44:27;;;;;;;10.48;7.18;;;19.10;1.00;;;;;;4910471;29;47179;-81
2023/06/17 05:46:53;;;;;;;9.85;8.02;;;19.40;99.90;;;;;;4904943;29;37967;-80
2023/06/17 05:49:19;;;;;;;10.25;7.28;;;19.60;1.00;;;;;;4909985;28;38358;-79
2023/06/17 05:51:46;;;;;;;7.35;6.55;;;19.80;1.00;;;;;;4907521;29;38038;-78
2023/06/17 05:54:12;;;;;;;10.20;6.85;;;19.90;1.00;;;;;;4900546;29;37441;-80
2023/06/17 05:56:38;;;;;;;8.27;6.68;;;19.90;1.00;;;;;;4902854;29;37867;-80
2023/06/17 05:59:04;;;;;;;10.25;7.13;;;19.80;1.00;;;;;;4907040;29;36963;-79
2023/06/17 06:01:30;;;;;;;7.55;6.07;;;20.10;1.00;;;;;;4903180;29;39097;-80
2023/06/17 06:03:56;;;;;;;7.70;6.45;;;20.30;9.30;;;;;;4937326;28;38091;-79
2023/06/17 06:06:22;;;;;;;7.25;6.30;;;20.50;1.00;;;;;;4930234;28;37083;-79
2023/06/17 06:08:48;;;;;;;6.90;5.57;;;20.50;88.00;;;;;;4921014;28;36036;-79
2023/06/17 06:11:15;;;;;;;8.10;6.15;;;20.70;1.00;;;;;;4925203;28;37470;-77
2023/06/17 06:13:42;;;;;;;7.75;6.40;;;20.90;99.90;;;;;;4926767;28;37212;-77
2023/06/17 06:16:08;;;;;;;11.23;7.15;;;20.80;99.90;;;;;;4939305;28;37677;-77
2023/06/17 06:18:34;;;;;;;6.80;5.35;;;20.90;99.90;;;;;;4919100;28;37030;-79
2023/06/17 06:21:00;;;;;;;10.80;6.85;;;21.10;1.00;;;;;;4952752;28;39098;-78
2023/06/17 06:23:26;;;;;;;8.00;6.60;;;21.30;99.90;;;;;;4940483;28;38705;-76
2023/06/17 06:25:52;;;;;;;7.38;5.75;;;21.50;99.90;;;;;;4924326;28;37618;-76
2023/06/17 06:28:18;;;;;;;10.80;6.45;;;21.80;1.00;;;;;;4933632;28;36655;-77
2023/06/17 06:30:44;;;;;;;8.35;6.40;;;21.70;59.90;;;;;;4939879;28;39077;-76
2023/06/17 06:33:10;;;;;;;6.55;5.95;;;21.70;1.00;;;;;;4919204;28;38559;-77
2023/06/17 06:35:37;;;;;;;7.35;5.68;;;21.90;1.00;;;;;;4916697;28;38307;-76
2023/06/17 06:38:03;;;;;;;7.05;6.35;;;21.80;87.20;;;;;;4939211;28;35980;-76
2023/06/17 06:40:29;;;;;;;7.43;5.88;;;22.00;1.00;;;;;;4933404;28;38563;-77
2023/06/17 06:42:57;;;;;;;8.32;5.82;;;22.20;1.00;;;;;;4937502;28;37191;-77
2023/06/17 06:45:23;;;;;;;7.57;6.25;;;22.40;1.00;;;;;;4924618;28;38559;-77
2023/06/17 06:47:49;;;;;;;6.63;5.93;;;22.60;1.00;;;;;;4934106;28;37104;-76
2023/06/17 06:50:16;;;;;;;7.22;5.72;;;22.70;19.90;;;;;;4944782;28;37768;-77
2023/06/17 06:52:42;;;;;;;6.93;6.03;;;22.70;1.00;;;;;;4928379;28;38507;-78
2023/06/17 06:55:08;;;;;;;8.10;6.35;;;22.60;1.00;;;;;;4945269;28;39119;-77
2023/06/17 06:57:34;;;;;;;7.50;4.85;;;22.80;99.90;;;;;;4944425;28;36891;-78
2023/06/17 07:00:00;;;;;;;5.50;4.97;;;23.00;1.00;;;;;;4942604;28;39475;-77
2023/06/17 07:02:26;;;;;;;6.28;4.50;;;23.00;1.00;;;;;;4930332;28;37841;-78
2023/06/17 07:04:52;;;;;;;6.95;4.93;;;23.20;1.00;;;;;;4945259;28;38225;-79
2023/06/17 07:07:18;;;;;;;5.03;4.53;;;23.50;1.00;;;;;;4921203;28;36411;-75
2023/06/17 07:09:44;;;;;;;4.88;4.45;;;23.60;1.00;;;;;;4948761;28;38566;-75
2023/06/17 07:12:11;;;;;;;5.18;4.68;;;23.30;1.00;;;;;;4928929;28;37059;-76
2023/06/17 07:14:37;;;;;;;8.93;4.43;;;23.50;99.90;;;;;;4922033;28;37163;-76
2023/06/17 07:17:03;;;;;;;5.88;4.40;;;23.60;99.90;;;;;;4928819;28;35615;-76
2023/06/17 07:19:30;;;;;;;6.28;4.70;;;23.80;92.50;;;;;;4931281;28;37970;-76
2023/06/17 07:21:56;;;;;;;4.70;4.28;;;23.90;3.00;;;;;;4947051;28;38669;-77
2023/06/17 07:24:22;;;;;;;7.50;4.35;;;24.00;1.00;;;;;;4952549;28;36957;-76
2023/06/17 07:26:48;;;;;;;4.90;3.88;;;24.10;1.00;;;;;;4929154;28;35974;-76
2023/06/17 07:29:14;;;;;;;6.72;3.92;;;23.80;1.00;;;;;;4943485;28;37932;-76
2023/06/17 07:31:40;;;;;;;5.30;4.00;;;24.00;99.90;;;;;;4925288;28;37858;-77
2023/06/17 07:34:06;;;;;;;5.43;3.45;;;23.80;1.00;;;;;;4941088;28;38135;-77
2023/06/17 07:36:32;;;;;;;5.82;4.18;;;23.50;99.90;;;;;;4912837;28;36345;-79
2023/06/17 07:38:58;;;;;;;4.72;3.97;;;23.90;1.00;;;;;;4931214;28;38140;-78
2023/06/17 07:41:25;;;;;;;6.45;3.70;;;24.00;2.50;;;;;;4930413;28;37109;-77
2023/06/17 07:43:51;;;;;;;4.53;3.60;;;24.00;1.00;;;;;;4929225;28;37343;-78
2023/06/17 07:46:17;;;;;;;6.57;4.00;;;24.00;99.90;;;;;;4943113;28;37104;-79
2023/06/17 07:48:43;;;;;;;6.03;3.55;;;23.70;1.00;;;;;;4940509;28;37747;-79
2023/06/17 07:51:09;;;;;;;6.53;3.50;;;23.80;1.00;;;;;;4934327;28;38564;-78
2023/06/17 07:53:36;;;;;;;5.15;3.22;;;24.00;99.90;;;;;;4937868;28;36959;-78
2023/06/17 07:56:02;;;;;;;3.95;3.00;;;24.30;1.00;;;;;;4941399;28;37132;-79
2023/06/17 07:58:28;;;;;;;3.95;2.90;;;24.80;1.00;;;;;;4942515;28;38231;-79
2023/06/17 08:00:54;;;;;;;5.57;3.15;;;25.30;1.00;;;;;;4944428;28;38442;-79
2023/06/17 08:03:20;;;;;;;6.75;3.22;;;24.90;1.00;;;;;;4945815;28;39549;-78
2023/06/17 08:05:46;;;;;;;3.38;2.80;;;25.10;1.00;;;;;;4945212;28;36994;-79
2023/06/17 08:08:12;;;;;;;4.45;3.28;;;25.70;1.00;;;;;;4927683;28;37755;-79
2023/06/17 08:10:39;;;;;;;8.30;3.22;;;26.10;1.00;;;;;;4932903;28;37660;-79
2023/06/17 08:13:05;;;;;;;4.82;3.53;;;26.00;1.00;;;;;;4944454;28;37927;-79
2023/06/17 08:15:31;;;;;;;4.18;3.20;;;25.80;1.00;;;;;;4944973;28;37353;-78
2023/06/17 08:17:57;;;;;;;5.90;3.05;;;25.90;1.00;;;;;;4930480;28;37789;-78
2023/06/17 08:20:23;;;;;;;3.00;2.70;;;26.10;1.00;;;;;;4950215;28;37245;-78
2023/06/17 08:22:50;;;;;;;4.68;2.70;;;25.20;1.00;;;;;;4949493;28;38302;-79
2023/06/17 08:25:16;;;;;;;6.97;2.92;;;25.70;1.00;;;;;;4930362;28;37864;-78
2023/06/17 08:27:47;;;;;;;4.35;2.80;;;26.00;1.00;;;;;;4912653;28;39444;-78
2023/06/17 08:30:13;;;;;;;7.85;3.33;;;26.20;1.00;;;;;;4918463;28;38355;-79
2023/06/17 08:32:39;;;;;;;5.35;3.00;;;26.40;1.00;;;;;;4922331;28;36983;-77
2023/06/17 08:35:06;;;;;;;10.25;3.80;;;26.60;1.00;;;;;;4924860;28;36070;-78
2023/06/17 08:37:35;;;;;;;3.85;2.95;;;26.30;1.00;;;;;;4940728;28;38349;-78
2023/06/17 08:40:04;;;;;;;4.18;3.10;;;26.50;1.00;;;;;;4945345;28;39115;-79
2023/06/17 08:42:30;;;;;;;3.42;2.55;;;26.70;1.00;;;;;;4922367;28;47369;-78
2023/06/17 08:45:00;;;;;;;3.53;2.92;;;26.30;1.00;;;;;;4924714;28;35733;-78
2023/06/17 08:47:26;;;;;;;9.55;3.05;;;26.30;1.00;;;;;;4925989;28;38031;-77
2023/06/17 08:49:57;;;;;;;4.43;2.80;;;26.50;1.00;;;;;;4946193;28;40216;-77
2023/06/17 08:52:28;;;;;;;4.32;3.03;;;26.90;1.00;;;;;;4926701;28;37006;-77
2023/06/17 08:54:55;;;;;;;4.78;2.90;;;26.50;1.00;;;;;;4927147;28;36498;-77
2023/06/17 08:57:22;;;;;;;6.78;3.00;;;26.30;1.00;;;;;;4946221;28;38887;-79
2023/06/17 08:59:48;;;;;;;2.95;2.70;;;26.60;1.00;;;;;;4928553;28;37305;-76
2023/06/17 09:02:15;;;;;;;4.22;3.08;;;26.70;1.00;;;;;;4935240;28;36711;-78
2023/06/17 09:04:41;;;;;;;3.22;2.47;;;26.50;1.00;;;;;;4931648;28;37536;-78
2023/06/17 09:07:09;;;;;;;5.80;3.40;;;26.90;1.00;;;;;;4947039;28;40846;-77
2023/06/17 09:09:35;;;;;;;2.60;2.40;;;27.50;1.00;;;;;;4925768;28;37394;-76
2023/06/17 09:12:05;;;;;;;3.03;2.60;;;27.80;1.00;;;;;;4944784;28;38004;-77
2023/06/17 09:14:33;;;;;;;4.05;2.78;;;27.40;1.00;;;;;;4947539;28;48525;-78
2023/06/17 09:17:00;;;;;;;2.90;2.67;;;27.70;1.00;;;;;;4930512;28;39257;-78
2023/06/17 09:19:29;;;;;;;5.15;2.65;;;28.00;1.00;;;;;;4947584;28;37612;-77
2023/06/17 09:21:56;;;;;;;3.60;2.60;;;28.10;1.00;;;;;;4928330;28;38072;-77
2023/06/17 09:24:30;;;;;;;4.82;2.70;;;28.20;1.00;;;;;;4930740;28;37513;-78
2023/06/17 09:26:56;;;;;;;2.95;2.63;;;28.30;1.00;;;;;;4926210;28;37731;-76
2023/06/17 09:29:22;;;;;;;7.72;3.78;;;28.50;1.00;;;;;;4929019;28;37577;-78
2023/06/17 09:31:53;;;;;;;4.60;2.70;;;28.80;1.00;;;;;;4922809;28;35529;-77
2023/06/17 09:34:20;;;;;;;3.60;2.50;;;28.70;1.00;;;;;;4924755;28;36085;-77
2023/06/17 09:36:52;;;;;;;5.57;3.05;;;28.20;1.00;;;;;;4923813;28;36809;-75
2023/06/17 09:39:18;;;;;;;;;;;27.40;1.00;;;;;;4926852;28;37541;-78
2023/06/17 09:41:44;;;;;;;4.47;2.95;;;27.40;1.00;;;;;;4946115;28;37726;-77
2023/06/17 09:44:11;;;;;;;3.17;2.63;;;28.00;1.00;;;;;;4927398;28;35561;-78
2023/06/17 09:46:39;;;;;;;3.00;2.67;;;28.50;1.00;;;;;;4928530;28;38116;-78
2023/06/17 09:49:15;;;;;;;3.30;2.65;;;29.00;1.00;;;;;;4930298;28;38565;-78
2023/06/17 09:51:42;;;;;;;3.95;3.03;;;29.30;1.00;;;;;;4935820;28;37674;-78
2023/06/17 09:54:09;;;;;;;4.72;3.08;;;28.40;1.00;;;;;;4947508;28;37342;-78
2023/06/17 09:56:37;;;;;;;4.50;3.33;;;27.40;1.00;;;;;;4926411;28;39244;-80
2023/06/17 09:59:04;;;;;;;3.42;3.10;;;26.50;1.00;;;;;;4920748;28;38584;-79
2023/06/17 10:01:30;;;;;;;3.30;3.00;;;26.70;1.00;;;;;;4946514;28;39346;-78
2023/06/17 10:03:58;;;;;;;4.03;2.92;;;27.10;1.00;;;;;;4930674;28;35648;-79
2023/06/17 10:06:28;;;;;;;4.00;2.95;;;27.80;1.00;;;;;;4929838;28;38141;-79
2023/06/17 10:08:55;;;;;;;4.07;3.08;;;28.20;1.00;;;;;;4928092;28;39324;-78
2023/06/17 10:11:23;;;;;;;3.25;2.95;;;28.30;1.00;;;;;;4916103;28;38766;-77
2023/06/17 10:13:56;;;;;;;7.25;3.92;;;28.30;1.00;;;;;;4947150;28;38057;-79
2023/06/17 10:16:25;;;;;;;5.72;3.72;;;27.30;1.00;;;;;;4928133;28;39191;-79
2023/06/17 10:18:53;;;;;;;5.13;3.30;;;26.80;1.00;;;;;;4924918;28;37757;-79
2023/06/17 10:21:23;;;;;;;3.85;3.10;;;27.00;1.00;;;;;;4949420;28;37694;-77
2023/06/17 10:23:52;;;;;;;5.80;3.28;;;26.90;1.00;;;;;;4945186;28;36166;-79
2023/06/17 10:26:20;;;;;;;4.93;3.22;;;26.70;1.00;;;;;;4922974;28;37584;-79
2023/06/17 10:29:09;;;;;;;6.97;3.03;;;26.60;1.00;;;;;;4949070;28;39075;-80
2023/06/17 10:31:38;;;;;;;4.10;2.75;;;27.10;1.00;;;;;;4940024;28;49003;-78
2023/06/17 10:34:05;;;;;;;4.32;3.17;;;27.40;1.00;;;;;;4935180;28;37285;-76
2023/06/17 10:36:37;;;;;;;7.55;3.38;;;27.20;1.00;;;;;;4940953;28;39560;-78
2023/06/17 10:39:11;;;;;;;3.88;3.00;;;27.80;1.00;;;;;;4944669;28;38655;-78
2023/06/17 10:41:37;;;;;;;4.30;3.20;;;27.60;1.00;;;;;;4925980;28;37917;-79
2023/06/17 10:44:42;;;;;;;5.43;3.15;;;27.60;1.00;;;;;;4945918;28;37113;-79
2023/06/17 10:47:22;;;;;;;3.40;2.88;;;27.40;1.00;;;;;;4884024;28;39122;-79
2023/06/17 10:49:51;;;;;;;4.13;2.80;;;27.70;1.00;;;;;;4945755;28;39789;-78
2023/06/17 10:52:19;;;;;;;4.78;3.50;;;28.00;1.00;;;;;;4929363;28;38165;-78
2023/06/17 10:54:53;;;;;;;4.15;2.90;;;28.00;1.00;;;;;;4933050;28;36292;-78
2023/06/17 10:57:31;;;;;;;7.07;3.30;;;27.60;1.00;;;;;;4927722;28;38005;-78
2023/06/17 11:00:08;;;;;;;4.82;3.25;;;27.60;1.00;;;;;;4936074;28;38178;-78
2023/06/17 11:02:40;;;;;;;5.20;3.35;;;27.00;1.00;;;;;;4922043;28;36921;-80
2023/06/17 11:05:08;;;;;;;5.50;3.95;;;26.70;1.00;;;;;;4930193;28;36015;-78
2023/06/17 11:07:34;;;;;;;4.68;3.67;;;26.50;1.00;;;;;;4946872;28;38923;-77
2023/06/17 11:10:00;;;;;;;5.88;3.38;;;26.60;1.00;;;;;;4932603;28;37368;-77
2023/06/17 11:12:26;;;;;;;5.05;3.40;;;26.70;1.00;;;;;;4929635;28;37254;-77
2023/06/17 11:14:53;;;;;;;6.03;3.50;;;26.80;1.00;;;;;;4931026;28;37618;-79
2023/06/17 11:17:19;;;;;;;8.65;3.78;;;27.30;1.00;;;;;;4942909;28;37710;-76
2023/06/17 11:19:47;;;;;;;4.03;3.20;;;27.70;1.00;;;;;;4945766;28;38739;-80
2023/06/17 11:22:13;;;;;;;5.13;3.47;;;27.60;1.00;;;;;;4931660;28;37266;-78
2023/06/17 11:24:39;;;;;;;7.60;3.05;;;27.50;1.00;;;;;;4933254;28;36638;-79
2023/06/17 11:27:06;;;;;;;7.55;3.55;;;27.40;1.00;;;;;;4950391;28;39100;-77
2023/06/17 11:29:32;;;;;;;4.30;3.72;;;27.60;1.00;;;;;;4948684;28;38216;-78
2023/06/17 11:31:59;;;;;;;3.85;3.28;;;27.20;1.00;;;;;;4945983;28;37295;-79
2023/06/17 11:34:31;;;;;;;6.63;3.65;;;27.20;1.00;;;;;;4943966;28;38011;-79
2023/06/17 11:37:00;;;;;;;6.10;3.25;;;27.40;1.00;;;;;;4947884;28;38614;-80
2023/06/17 11:39:30;;;;;;;4.35;3.50;;;27.50;1.00;;;;;;4924023;28;37641;-79
2023/06/17 11:42:06;;;;;;;7.00;3.55;;;27.80;1.00;;;;;;4924807;28;36942;-79
2023/06/17 11:44:34;;;;;;;5.20;3.22;;;27.40;1.00;;;;;;4948819;28;48986;-79
2023/06/17 11:47:08;;;;;;;4.35;3.47;;;27.80;1.00;;;;;;4932421;28;39330;-76
2023/06/17 11:49:35;;;;;;;4.25;3.30;;;28.40;1.00;;;;;;4930119;28;48628;-76
2023/06/17 11:52:08;;;;;;;4.22;3.63;;;28.60;1.00;;;;;;4929905;28;37684;-77
2023/06/17 11:54:51;;;;;;;6.85;3.15;;;28.90;1.00;;;;;;4945946;28;37436;-78
2023/06/17 11:57:20;;;;;;;4.00;3.60;;;29.40;1.00;;;;;;4942714;28;38927;-77
2023/06/17 11:59:47;;;;;;;8.30;4.00;;;28.70;1.00;;;;;;4949101;28;38327;-78
2023/06/17 12:02:14;;;;;;;4.22;3.38;;;28.80;1.00;;;;;;4920211;28;38082;-78
2023/06/17 12:04:43;;;;;;;4.63;3.78;;;27.90;1.00;;;;;;4930682;28;36056;-78
2023/06/17 12:07:10;;;;;;;4.47;3.35;;;27.80;1.00;;;;;;4949287;28;39442;-78
2023/06/17 12:09:53;;;;;;;3.92;3.53;;;27.70;1.00;;;;;;4927169;28;38589;-78
2023/06/17 12:12:29;;;;;;;6.65;3.30;;;27.80;1.00;;;;;;4926568;28;38257;-78
2023/06/17 12:15:03;;;;;;;5.93;3.78;;;27.50;1.00;;;;;;4942201;28;36840;-78
2023/06/17 12:17:49;;;;;;;3.72;3.42;;;27.60;1.00;;;;;;4945139;28;48691;-78
2023/06/17 12:20:18;;;;;;;3.85;3.42;;;27.60;1.00;;;;;;4929237;28;37237;-78
2023/06/17 12:22:45;;;;;;;6.32;3.75;;;28.00;1.00;;;;;;4931946;28;36789;-78
2023/06/17 12:25:11;;;;;;;4.45;3.50;;;28.30;1.00;;;;;;4929260;28;35493;-78
2023/06/17 12:27:38;;;;;;;5.78;3.97;;;28.00;1.00;;;;;;4946298;28;38674;-77
2023/06/17 12:30:05;;;;;;;6.90;3.85;;;28.30;1.00;;;;;;4945267;28;38501;-79
2023/06/17 12:32:31;;;;;;;4.82;3.92;;;28.00;1.00;;;;;;4933922;28;38225;-78
2023/06/17 12:34:58;;;;;;;3.78;3.47;;;28.20;1.00;;;;;;4944594;28;36317;-78
2023/06/17 12:37:31;;;;;;;6.78;3.95;;;28.00;1.00;;;;;;4942425;28;38587;-79
2023/06/17 12:40:03;;;;;;;6.32;3.85;;;27.80;1.00;;;;;;4929161;28;39651;-79
2023/06/17 12:42:29;;;;;;;10.18;3.80;;;28.00;1.00;;;;;;4938812;28;37679;-78
2023/06/17 12:44:56;;;;;;;6.00;4.05;;;27.80;1.00;;;;;;4944139;28;37359;-80
2023/06/17 12:47:23;;;;;;;5.60;3.65;;;27.80;1.00;;;;;;4928695;28;37423;-79
2023/06/17 12:49:49;;;;;;;3.75;3.22;;;28.00;1.00;;;;;;4940281;28;39133;-79
2023/06/17 12:52:16;;;;;;;3.90;3.45;;;28.20;1.00;;;;;;4926855;28;37979;-78
2023/06/17 12:54:43;;;;;;;5.35;4.10;;;28.00;1.00;;;;;;4931765;28;36063;-79